sensor_id;sensor_type;location;lat;lon;timestamp;P1;P2;P0
74436;PMS7003;62868;52.360;30.424;2023-04-03T00:01:25;0;0;0
74436;PMS7003;62868;52.360;30.424;2023-04-03T00:06:05;1;0;0
74436;PMS7003;62868;52.360;30.424;2023-04-03T00:11:35;0.8;0.3;0
74436;PMS7003;62868;52.360;30.424;2023-04-03T00:15:53;0.3;0.3;0
74436;PMS7003;62868;52.360;30.424;2023-04-03T00:20:53;0;0;0
74436;PMS7003;62868;52.360;30.424;2023-04-03T00:26:01;0;0;0
74436;PMS7003;62868;52.360;30.424;2023-04-03T00:31:03;0.3;0;0
74436;PMS7003;62868;52.360;30.424;2023-04-03T00:36:33;0;0;0
74436;PMS7003;62868;52.360;30.424;2023-04-03T00:41:17;0;0;0
74436;PMS7003;62868;52.360;30.424;2023-04-03T00:46:03;0.5;0.3;0
74436;PMS7003;62868;52.360;30.424;2023-04-03T00:51:27;0;0;0
74436;PMS7003;62868;52.360;30.424;2023-04-03T00:55:59;0;0;0
74436;PMS7003;62868;52.360;30.424;2023-04-03T01:01:33;0;0;0
74436;PMS7003;62868;52.360;30.424;2023-04-03T01:06:19;0;0;0
74436;PMS7003;62868;52.360;30.424;2023-04-03T01:10:53;0;0;0
74436;PMS7003;62868;52.360;30.424;2023-04-03T01:16:25;0;0;0
74436;PMS7003;62868;52.360;30.424;2023-04-03T01:21:08;0;0;0
74436;PMS7003;62868;52.360;30.424;2023-04-03T01:26:33;0;0;0
74436;PMS7003;62868;52.360;30.424;2023-04-03T01:31:20;0;0;0
74436;PMS7003;62868;52.360;30.424;2023-04-03T01:35:53;0;0;0
74436;PMS7003;62868;52.360;30.424;2023-04-03T01:41:20;0;0;0
74436;PMS7003;62868;52.360;30.424;2023-04-03T01:46:09;0;0;0
74436;PMS7003;62868;52.360;30.424;2023-04-03T01:51:33;0;0;0
74436;PMS7003;62868;52.360;30.424;2023-04-03T01:56:17;0;0;0
74436;PMS7003;62868;52.360;30.424;2023-04-03T02:01:09;0;0;0
74436;PMS7003;62868;52.360;30.424;2023-04-03T02:06:25;0;0;0
74436;PMS7003;62868;52.360;30.424;2023-04-03T02:10:53;0;0;0
74436;PMS7003;62868;52.360;30.424;2023-04-03T02:16:35;0;0;0
74436;PMS7003;62868;52.360;30.424;2023-04-03T02:21:17;0;0;0
74436;PMS7003;62868;52.360;30.424;2023-04-03T02:26:01;0;0;0
74436;PMS7003;62868;52.360;30.424;2023-04-03T02:30:53;0;0;0
74436;PMS7003;62868;52.360;30.424;2023-04-03T02:35:53;0;0;0
74436;PMS7003;62868;52.360;30.424;2023-04-03T02:41:35;0;0;0
74436;PMS7003;62868;52.360;30.424;2023-04-03T02:46:19;0;0;0
74436;PMS7003;62868;52.360;30.424;2023-04-03T02:50:59;0;0;0
74436;PMS7003;62868;52.360;30.424;2023-04-03T02:56:03;0;0;0
74436;PMS7003;62868;52.360;30.424;2023-04-03T03:00:53;0;0;0
74436;PMS7003;62868;52.360;30.424;2023-04-03T03:06:33;0;0;0
74436;PMS7003;62868;52.360;30.424;2023-04-03T03:11:18;0;0;0
74436;PMS7003;62868;52.360;30.424;2023-04-03T03:16:04;0;0;0
74436;PMS7003;62868;52.360;30.424;2023-04-03T03:21:25;0;0;0
74436;PMS7003;62868;52.360;30.424;2023-04-03T03:26:04;0;0;0
74436;PMS7003;62868;52.360;30.424;2023-04-03T03:31:33;0;0;0
74436;PMS7003;62868;52.360;30.424;2023-04-03T03:36:17;0;0;0
74436;PMS7003;62868;52.360;30.424;2023-04-03T03:41:17;0;0;0
74436;PMS7003;62868;52.360;30.424;2023-04-03T03:46:31;0;0;0
74436;PMS7003;62868;52.360;30.424;2023-04-03T03:51:03;0;0;0
74436;PMS7003;62868;52.360;30.424;2023-04-03T03:56:17;0.3;0;0
74436;PMS7003;62868;52.360;30.424;2023-04-03T04:01:17;0;0;0
74436;PMS7003;62868;52.360;30.424;2023-04-03T04:06:11;0;0;0
74436;PMS7003;62868;52.360;30.424;2023-04-03T04:11:21;0;0;0
74436;PMS7003;62868;52.360;30.424;2023-04-03T04:16:04;0;0;0
74436;PMS7003;62868;52.360;30.424;2023-04-03T04:21:18;0;0;0
74436;PMS7003;62868;52.360;30.424;2023-04-03T04:26:11;0;0;0
74436;PMS7003;62868;52.360;30.424;2023-04-03T04:31:17;0;0;0
74436;PMS7003;62868;52.360;30.424;2023-04-03T04:36:33;0;0;0
74436;PMS7003;62868;52.360;30.424;2023-04-03T04:41:09;0;0;0
74436;PMS7003;62868;52.360;30.424;2023-04-03T04:46:11;0;0;0
74436;PMS7003;62868;52.360;30.424;2023-04-03T04:51:27;0;0;0
74436;PMS7003;62868;52.360;30.424;2023-04-03T04:56:35;0;0;0
74436;PMS7003;62868;52.360;30.424;2023-04-03T05:01:33;0;0;0
74436;PMS7003;62868;52.360;30.424;2023-04-03T05:06:00;0;0;0
74436;PMS7003;62868;52.360;30.424;2023-04-03T05:11:17;0;0;0
74436;PMS7003;62868;52.360;30.424;2023-04-03T05:15:53;0;0;0
74436;PMS7003;62868;52.360;30.424;2023-04-03T05:21:07;0;0;0
74436;PMS7003;62868;52.360;30.424;2023-04-03T05:26:35;0;0;0
74436;PMS7003;62868;52.360;30.424;2023-04-03T05:30:54;0;0;0
74436;PMS7003;62868;52.360;30.424;2023-04-03T05:36:17;0;0;0
74436;PMS7003;62868;52.360;30.424;2023-04-03T05:40:53;0;0;0
74436;PMS7003;62868;52.360;30.424;2023-04-03T05:46:18;0;0;0
74436;PMS7003;62868;52.360;30.424;2023-04-03T05:51:36;0;0;0
74436;PMS7003;62868;52.360;30.424;2023-04-03T05:56:09;0;0;0
74436;PMS7003;62868;52.360;30.424;2023-04-03T06:01:17;0;0;0
74436;PMS7003;62868;52.360;30.424;2023-04-03T06:06:17;0;0;0
74436;PMS7003;62868;52.360;30.424;2023-04-03T06:11:07;0;0;0
74436;PMS7003;62868;52.360;30.424;2023-04-03T06:15:55;0;0;0
74436;PMS7003;62868;52.360;30.424;2023-04-03T06:20:53;0;0;0
74436;PMS7003;62868;52.360;30.424;2023-04-03T06:26:09;0;0;0
74436;PMS7003;62868;52.360;30.424;2023-04-03T06:31:17;0;0;0
74436;PMS7003;62868;52.360;30.424;2023-04-03T06:35:59;0;0;0
74436;PMS7003;62868;52.360;30.424;2023-04-03T06:41:32;0;0;0
74436;PMS7003;62868;52.360;30.424;2023-04-03T06:46:04;0;0;0
74436;PMS7003;62868;52.360;30.424;2023-04-03T06:51:18;0;0;0
74436;PMS7003;62868;52.360;30.424;2023-04-03T06:55:53;0;0;0
74436;PMS7003;62868;52.360;30.424;2023-04-03T07:01:18;0;0;0
74436;PMS7003;62868;52.360;30.424;2023-04-03T07:06:35;0;0;0
74436;PMS7003;62868;52.360;30.424;2023-04-03T07:10:54;0;0;0
74436;PMS7003;62868;52.360;30.424;2023-04-03T07:16:34;0;0;0
74436;PMS7003;62868;52.360;30.424;2023-04-03T07:21:08;0;0;0
74436;PMS7003;62868;52.360;30.424;2023-04-03T07:26:17;0;0;0
74436;PMS7003;62868;52.360;30.424;2023-04-03T07:31:32;0;0;0
74436;PMS7003;62868;52.360;30.424;2023-04-03T07:36:00;0;0;0
74436;PMS7003;62868;52.360;30.424;2023-04-03T07:41:18;0;0;0
74436;PMS7003;62868;52.360;30.424;2023-04-03T07:46:26;0;0;0
74436;PMS7003;62868;52.360;30.424;2023-04-03T07:51:12;0.7;0;0
74436;PMS7003;62868;52.360;30.424;2023-04-03T07:56:34;0;0;0
74436;PMS7003;62868;52.360;30.424;2023-04-03T08:00:54;0;0;0
74436;PMS7003;62868;52.360;30.424;2023-04-03T08:06:02;0;0;0
74436;PMS7003;62868;52.360;30.424;2023-04-03T08:11:24;0;0;0
74436;PMS7003;62868;52.360;30.424;2023-04-03T08:16:34;0;0;0
74436;PMS7003;62868;52.360;30.424;2023-04-03T08:21:05;0;0;0
74436;PMS7003;62868;52.360;30.424;2023-04-03T08:25:54;0;0;0
74436;PMS7003;62868;52.360;30.424;2023-04-03T08:31:13;0;0;0
74436;PMS7003;62868;52.360;30.424;2023-04-03T08:36:19;0;0;0
74436;PMS7003;62868;52.360;30.424;2023-04-03T08:41:36;0;0;0
74436;PMS7003;62868;52.360;30.424;2023-04-03T08:46:13;0;0;0
74436;PMS7003;62868;52.360;30.424;2023-04-03T08:50:55;0;0;0
74436;PMS7003;62868;52.360;30.424;2023-04-03T08:56:32;0;0;0
74436;PMS7003;62868;52.360;30.424;2023-04-03T09:01:24;0;0;0
74436;PMS7003;62868;52.360;30.424;2023-04-03T09:06:34;0;0;0
74436;PMS7003;62868;52.360;30.424;2023-04-03T09:11:13;0;0;0
74436;PMS7003;62868;52.360;30.424;2023-04-03T09:16:04;0;0;0
74436;PMS7003;62868;52.360;30.424;2023-04-03T09:21:13;0;0;0
74436;PMS7003;62868;52.360;30.424;2023-04-03T09:26:24;0;0;0
74436;PMS7003;62868;52.360;30.424;2023-04-03T09:31:36;0;0;0
74436;PMS7003;62868;52.360;30.424;2023-04-03T09:35:54;0;0;0
74436;PMS7003;62868;52.360;30.424;2023-04-03T09:41:02;0;0;0
74436;PMS7003;62868;52.360;30.424;2023-04-03T09:45:54;0;0;0
74436;PMS7003;62868;52.360;30.424;2023-04-03T09:51:34;0;0;0
74436;PMS7003;62868;52.360;30.424;2023-04-03T09:56:23;0;0;0
74436;PMS7003;62868;52.360;30.424;2023-04-03T10:01:20;0;0;0
74436;PMS7003;62868;52.360;30.424;2023-04-03T10:06:21;0;0;0
74436;PMS7003;62868;52.360;30.424;2023-04-03T10:11:14;0;0;0
74436;PMS7003;62868;52.360;30.424;2023-04-03T10:16:14;0;0;0
74436;PMS7003;62868;52.360;30.424;2023-04-03T10:21:39;0;0;0
74436;PMS7003;62868;52.360;30.424;2023-04-03T10:26:16;0;0;0
74436;PMS7003;62868;52.360;30.424;2023-04-03T10:31:05;0.3;0;0
74436;PMS7003;62868;52.360;30.424;2023-04-03T10:36:07;0;0;0
74436;PMS7003;62868;52.360;30.424;2023-04-03T10:41:23;0;0;0
74436;PMS7003;62868;52.360;30.424;2023-04-03T10:46:36;0;0;0
74436;PMS7003;62868;52.360;30.424;2023-04-03T10:50:57;0;0;0
74436;PMS7003;62868;52.360;30.424;2023-04-03T10:55:55;0;0;0
74436;PMS7003;62868;52.360;30.424;2023-04-03T11:01:18;0;0;0
74436;PMS7003;62868;52.360;30.424;2023-04-03T11:06:25;0;0;0
74436;PMS7003;62868;52.360;30.424;2023-04-03T11:11:38;0;0;0
74436;PMS7003;62868;52.360;30.424;2023-04-03T11:16:14;0;0;0
74436;PMS7003;62868;52.360;30.424;2023-04-03T11:21:04;0;0;0
74436;PMS7003;62868;52.360;30.424;2023-04-03T11:26:12;0;0;0
74436;PMS7003;62868;52.360;30.424;2023-04-03T11:31:07;0;0;0
74436;PMS7003;62868;52.360;30.424;2023-04-03T11:36:39;0;0;0
74436;PMS7003;62868;52.360;30.424;2023-04-03T11:41:04;0;0;0
74436;PMS7003;62868;52.360;30.424;2023-04-03T11:46:14;0;0;0
74436;PMS7003;62868;52.360;30.424;2023-04-03T11:51:45;0.3;0;0
74436;PMS7003;62868;52.360;30.424;2023-04-03T11:56:28;0;0;0
74436;PMS7003;62868;52.360;30.424;2023-04-03T12:01:42;0;0;0
74436;PMS7003;62868;52.360;30.424;2023-04-03T12:06:58;0.3;0;0
74436;PMS7003;62868;52.360;30.424;2023-04-03T12:11:14;0;0;0
74436;PMS7003;62868;52.360;30.424;2023-04-03T12:16:19;0;0;0
74436;PMS7003;62868;52.360;30.424;2023-04-03T12:21:24;0;0;0
74436;PMS7003;62868;52.360;30.424;2023-04-03T12:26:38;0;0;0
74436;PMS7003;62868;52.360;30.424;2023-04-03T12:31:31;0;0;0
74436;PMS7003;62868;52.360;30.424;2023-04-03T12:36:04;0;0;0
74436;PMS7003;62868;52.360;30.424;2023-04-03T12:41:18;0;0;0
74436;PMS7003;62868;52.360;30.424;2023-04-03T12:46:24;0;0;0
74436;PMS7003;62868;52.360;30.424;2023-04-03T12:51:39;0;0;0
74436;PMS7003;62868;52.360;30.424;2023-04-03T12:56:25;0;0;0
74436;PMS7003;62868;52.360;30.424;2023-04-03T13:01:08;0;0;0
74436;PMS7003;62868;52.360;30.424;2023-04-03T13:05:54;0.3;0;0
74436;PMS7003;62868;52.360;30.424;2023-04-03T13:11:24;0.3;0;0
74436;PMS7003;62868;52.360;30.424;2023-04-03T13:16:34;0;0;0
74436;PMS7003;62868;52.360;30.424;2023-04-03T13:21:15;0;0;0
74436;PMS7003;62868;52.360;30.424;2023-04-03T13:25:54;0;0;0
74436;PMS7003;62868;52.360;30.424;2023-04-03T13:31:06;0;0;0
74436;PMS7003;62868;52.360;30.424;2023-04-03T13:36:24;0;0;0
74436;PMS7003;62868;52.360;30.424;2023-04-03T13:41:38;0;0;0
74436;PMS7003;62868;52.360;30.424;2023-04-03T13:46:25;0;0;0
74436;PMS7003;62868;52.360;30.424;2023-04-03T13:50:58;0;0;0
74436;PMS7003;62868;52.360;30.424;2023-04-03T13:56:17;0;0;0
74436;PMS7003;62868;52.360;30.424;2023-04-03T14:01:24;0;0;0
74436;PMS7003;62868;52.360;30.424;2023-04-03T14:06:16;0;0;0
74436;PMS7003;62868;52.360;30.424;2023-04-03T14:11:24;0.5;0;0
74436;PMS7003;62868;52.360;30.424;2023-04-03T14:16:23;0;0;0
74436;PMS7003;62868;52.360;30.424;2023-04-03T14:21:16;0.7;0.7;0
74436;PMS7003;62868;52.360;30.424;2023-04-03T14:26:24;0.3;0.3;0
74436;PMS7003;62868;52.360;30.424;2023-04-03T14:31:38;0.5;0;0
74436;PMS7003;62868;52.360;30.424;2023-04-03T14:36:25;0;0;0
74436;PMS7003;62868;52.360;30.424;2023-04-03T14:41:17;0.3;0.3;0.3
74436;PMS7003;62868;52.360;30.424;2023-04-03T14:45:54;0.3;0.3;0.3
74436;PMS7003;62868;52.360;30.424;2023-04-03T14:51:24;2;1.3;0.5
74436;PMS7003;62868;52.360;30.424;2023-04-03T14:56:21;1.7;1.7;1
74436;PMS7003;62868;52.360;30.424;2023-04-03T15:01:38;6;4;2.3
74436;PMS7003;62868;52.360;30.424;2023-04-03T15:06:08;10;9;5.7
74436;PMS7003;62868;52.360;30.424;2023-04-03T15:10:54;6.3;5;2.3
74436;PMS7003;62868;52.360;30.424;2023-04-03T15:16:38;10.5;7.8;4.8
74436;PMS7003;62868;52.360;30.424;2023-04-03T15:21:24;9.7;6.3;4.3
74436;PMS7003;62868;52.360;30.424;2023-04-03T15:26:38;2.7;1.7;1.3
74436;PMS7003;62868;52.360;30.424;2023-04-03T15:31:24;0.7;0.7;0
74436;PMS7003;62868;52.360;30.424;2023-04-03T15:36:14;1.5;1;0.8
74436;PMS7003;62868;52.360;30.424;2023-04-03T15:41:04;0.7;0.3;0.3
74436;PMS7003;62868;52.360;30.424;2023-04-03T15:46:42;1.3;1.3;1
74436;PMS7003;62868;52.360;30.424;2023-04-03T15:51:36;1;1;0.7
74436;PMS7003;62868;52.360;30.424;2023-04-03T15:55:54;1.7;1.3;1
74436;PMS7003;62868;52.360;30.424;2023-04-03T16:01:38;8.8;5.8;3.8
74436;PMS7003;62868;52.360;30.424;2023-04-03T16:05:54;7.3;6.3;4.3
74436;PMS7003;62868;52.360;30.424;2023-04-03T16:11:20;4;3.3;2.3
74436;PMS7003;62868;52.360;30.424;2023-04-03T16:16:38;2;1.7;1.3
74436;PMS7003;62868;52.360;30.424;2023-04-03T16:20:54;0.8;0.8;0.3
74436;PMS7003;62868;52.360;30.424;2023-04-03T16:26:40;1.3;1;0.3
74436;PMS7003;62868;52.360;30.424;2023-04-03T16:30:54;2.3;1.3;1
74436;PMS7003;62868;52.360;30.424;2023-04-03T16:36:16;1.3;1;1
74436;PMS7003;62868;52.360;30.424;2023-04-03T16:41:40;1.3;1;1
74436;PMS7003;62868;52.360;30.424;2023-04-03T16:46:04;0.7;0.7;0
74436;PMS7003;62868;52.360;30.424;2023-04-03T16:51:40;1.3;0.7;0.3
74436;PMS7003;62868;52.360;30.424;2023-04-03T16:56:04;0.8;0.3;0.3
74436;PMS7003;62868;52.360;30.424;2023-04-03T17:01:22;0.3;0.3;0
74436;PMS7003;62868;52.360;30.424;2023-04-03T17:06:40;0.3;0.3;0
74436;PMS7003;62868;52.360;30.424;2023-04-03T17:11:10;0.3;0;0
74436;PMS7003;62868;52.360;30.424;2023-04-03T17:16:40;0.5;0;0
74436;PMS7003;62868;52.360;30.424;2023-04-03T17:20:54;0;0;0
74436;PMS7003;62868;52.360;30.424;2023-04-03T17:26:22;0.7;0.7;0.3
74436;PMS7003;62868;52.360;30.424;2023-04-03T17:31:10;0.7;0.7;0.3
74436;PMS7003;62868;52.360;30.424;2023-04-03T17:36:04;0.5;0;0
74436;PMS7003;62868;52.360;30.424;2023-04-03T17:41:40;0;0;0
74436;PMS7003;62868;52.360;30.424;2023-04-03T17:45:58;0.3;0;0
74436;PMS7003;62868;52.360;30.424;2023-04-03T17:51:22;0.3;0.3;0.3
74436;PMS7003;62868;52.360;30.424;2023-04-03T17:55:54;0.5;0.3;0
74436;PMS7003;62868;52.360;30.424;2023-04-03T18:01:11;0.7;0;0
74436;PMS7003;62868;52.360;30.424;2023-04-03T18:06:41;0;0;0
74436;PMS7003;62868;52.360;30.424;2023-04-03T18:11:08;0;0;0
74436;PMS7003;62868;52.360;30.424;2023-04-03T18:16:18;0.3;0.3;0
74436;PMS7003;62868;52.360;30.424;2023-04-03T18:21:02;0.3;0.3;0
74436;PMS7003;62868;52.360;30.424;2023-04-03T18:26:08;1;0.3;0
74436;PMS7003;62868;52.360;30.424;2023-04-03T18:31:38;0.3;0;0
74436;PMS7003;62868;52.360;30.424;2023-04-03T18:35:52;0.3;0.3;0
74436;PMS7003;62868;52.360;30.424;2023-04-03T18:41:23;0;0;0
74436;PMS7003;62868;52.360;30.424;2023-04-03T18:46:04;0;0;0
74436;PMS7003;62868;52.360;30.424;2023-04-03T18:51:10;0.5;0.3;0
74436;PMS7003;62868;52.360;30.424;2023-04-03T18:56:40;0.3;0.3;0
74436;PMS7003;62868;52.360;30.424;2023-04-03T19:00:54;0.3;0;0
74436;PMS7003;62868;52.360;30.424;2023-04-03T19:06:22;0;0;0
74436;PMS7003;62868;52.360;30.424;2023-04-03T19:11:04;0.3;0;0
74436;PMS7003;62868;52.360;30.424;2023-04-03T19:16:10;0;0;0
74436;PMS7003;62868;52.360;30.424;2023-04-03T19:21:40;0;0;0
74436;PMS7003;62868;52.360;30.424;2023-04-03T19:26:05;0.3;0.3;0
74436;PMS7003;62868;52.360;30.424;2023-04-03T19:31:22;0;0;0
74436;PMS7003;62868;52.360;30.424;2023-04-03T19:35:54;1.3;0;0
74436;PMS7003;62868;52.360;30.424;2023-04-03T19:41:04;0;0;0
74436;PMS7003;62868;52.360;30.424;2023-04-03T19:46:40;0.3;0.3;0
74436;PMS7003;62868;52.360;30.424;2023-04-03T19:51:02;0;0;0
74436;PMS7003;62868;52.360;30.424;2023-04-03T19:56:22;0.3;0;0
74436;PMS7003;62868;52.360;30.424;2023-04-03T20:01:14;0.3;0.3;0.3
74436;PMS7003;62868;52.360;30.424;2023-04-03T20:06:10;0;0;0
74436;PMS7003;62868;52.360;30.424;2023-04-03T20:11:40;0.3;0;0
74436;PMS7003;62868;52.360;30.424;2023-04-03T20:16:04;0.3;0;0
74436;PMS7003;62868;52.360;30.424;2023-04-03T20:21:16;0;0;0
74436;PMS7003;62868;52.360;30.424;2023-04-03T20:26:05;0.3;0.3;0
74436;PMS7003;62868;52.360;30.424;2023-04-03T20:31:26;0;0;0
74436;PMS7003;62868;52.360;30.424;2023-04-03T20:36:40;0.3;0;0
74436;PMS7003;62868;52.360;30.424;2023-04-03T20:41:10;0;0;0
74436;PMS7003;62868;52.360;30.424;2023-04-03T20:46:22;0.3;0;0
74436;PMS7003;62868;52.360;30.424;2023-04-03T20:50:54;0;0;0
74436;PMS7003;62868;52.360;30.424;2023-04-03T20:56:04;0.7;0;0
74436;PMS7003;62868;52.360;30.424;2023-04-03T21:01:40;0;0;0
74436;PMS7003;62868;52.360;30.424;2023-04-03T21:21:00;0;0;0
74436;PMS7003;62868;52.360;30.424;2023-04-03T21:26:40;0;0;0
74436;PMS7003;62868;52.360;30.424;2023-04-03T21:31:10;0;0;0
74436;PMS7003;62868;52.360;30.424;2023-04-03T21:36:06;0.3;0;0
74436;PMS7003;62868;52.360;30.424;2023-04-03T21:40:54;0.7;0;0
74436;PMS7003;62868;52.360;30.424;2023-04-03T21:46:04;0;0;0
74436;PMS7003;62868;52.360;30.424;2023-04-03T21:51:40;0.3;0;0
74436;PMS7003;62868;52.360;30.424;2023-04-03T21:55:54;0;0;0
74436;PMS7003;62868;52.360;30.424;2023-04-03T22:01:22;0;0;0
74436;PMS7003;62868;52.360;30.424;2023-04-03T22:05:57;0;0;0
74436;PMS7003;62868;52.360;30.424;2023-04-03T22:11:11;0;0;0
74436;PMS7003;62868;52.360;30.424;2023-04-03T22:16:38;0;0;0
74436;PMS7003;62868;52.360;30.424;2023-04-03T22:21:04;0;0;0
74436;PMS7003;62868;52.360;30.424;2023-04-03T22:26:22;0.5;0;0
74436;PMS7003;62868;52.360;30.424;2023-04-03T22:31:04;0;0;0
74436;PMS7003;62868;52.360;30.424;2023-04-03T22:36:10;0.3;0;0
74436;PMS7003;62868;52.360;30.424;2023-04-03T22:41:38;0.3;0.3;0
74436;PMS7003;62868;52.360;30.424;2023-04-03T22:46:10;0;0;0
74436;PMS7003;62868;52.360;30.424;2023-04-03T22:51:02;0.3;0;0
74436;PMS7003;62868;52.360;30.424;2023-04-03T22:55:54;0;0;0
74436;PMS7003;62868;52.360;30.424;2023-04-03T23:01:05;0;0;0
74436;PMS7003;62868;52.360;30.424;2023-04-03T23:06:38;0.3;0;0
74436;PMS7003;62868;52.360;30.424;2023-04-03T23:11:10;0;0;0
74436;PMS7003;62868;52.360;30.424;2023-04-03T23:16:22;0;0;0
74436;PMS7003;62868;52.360;30.424;2023-04-03T23:20:54;0;0;0
74436;PMS7003;62868;52.360;30.424;2023-04-03T23:26:22;0;0;0
74436;PMS7003;62868;52.360;30.424;2023-04-03T23:31:36;0;0;0
74436;PMS7003;62868;52.360;30.424;2023-04-03T23:36:08;0;0;0
74436;PMS7003;62868;52.360;30.424;2023-04-03T23:40:54;0;0;0
74436;PMS7003;62868;52.360;30.424;2023-04-03T23:45:54;0;0;0
74436;PMS7003;62868;52.360;30.424;2023-04-03T23:51:08;0;0;0
74436;PMS7003;62868;52.360;30.424;2023-04-03T23:56:34;0;0;0
